createdAt,value
2019-05-16T00:00:58.753Z,6.20
2019-05-16T00:03:24.169Z,6.20
2019-05-16T00:05:54.567Z,6.10
2019-05-16T00:08:19.453Z,6.00
2019-05-16T00:10:48.682Z,6.00
2019-05-16T00:13:14.604Z,5.90
2019-05-16T00:15:42.258Z,5.80
2019-05-16T00:18:10.143Z,5.60
2019-05-16T00:20:38.633Z,5.60
2019-05-16T00:23:07.755Z,5.70
2019-05-16T00:25:32.871Z,5.70
2019-05-16T00:28:00.430Z,5.70
2019-05-16T00:30:28.858Z,5.60
2019-05-16T00:32:55.572Z,5.70
2019-05-16T00:35:23.105Z,5.60
2019-05-16T00:37:50.736Z,5.70
2019-05-16T00:40:18.913Z,5.70
2019-05-16T00:42:48.882Z,5.60
2019-05-16T00:45:14.611Z,5.50
2019-05-16T00:47:42.203Z,5.60
2019-05-16T00:50:09.768Z,5.60
2019-05-16T00:52:39.519Z,5.60
2019-05-16T00:55:04.913Z,5.60
2019-05-16T00:57:32.799Z,5.50
2019-05-16T01:00:00.562Z,5.30
2019-05-16T01:02:28.858Z,5.30
2019-05-16T01:04:55.728Z,5.50
2019-05-16T01:07:23.269Z,5.50
2019-05-16T01:09:50.830Z,5.50
2019-05-16T01:12:18.365Z,5.20
2019-05-16T01:14:47.776Z,5.10
2019-05-16T01:17:13.536Z,5.00
2019-05-16T01:19:41.110Z,5.00
2019-05-16T01:22:08.651Z,4.90
2019-05-16T01:24:38.571Z,4.90
2019-05-16T01:27:03.811Z,4.90
2019-05-16T01:29:31.370Z,4.90
2019-05-16T01:31:59.127Z,4.90
2019-05-16T01:34:28.459Z,4.80
2019-05-16T01:36:55.094Z,4.90
2019-05-16T01:39:23.428Z,4.90
2019-05-16T01:41:50.962Z,4.80
2019-05-16T01:44:18.528Z,4.90
2019-05-16T01:46:47.961Z,4.80
2019-05-16T01:49:13.667Z,4.70
2019-05-16T01:51:41.212Z,4.80
2019-05-16T01:54:08.836Z,4.80
2019-05-16T01:56:38.562Z,4.70
2019-05-16T01:59:03.933Z,4.70
2019-05-16T02:01:31.496Z,4.70
2019-05-16T02:03:59.816Z,4.70
2019-05-16T02:06:28.756Z,4.60
2019-05-16T02:08:54.954Z,4.70
2019-05-16T02:11:22.520Z,4.70
2019-05-16T02:13:50.052Z,4.70
2019-05-16T02:16:18.920Z,4.70
2019-05-16T02:18:46.180Z,4.70
2019-05-16T02:21:13.737Z,4.70
2019-05-16T02:23:41.271Z,4.70
2019-05-16T02:26:08.831Z,4.80
2019-05-16T02:28:39.990Z,4.80
2019-05-16T02:31:04.100Z,4.80
2019-05-16T02:33:31.917Z,4.70
2019-05-16T02:36:01.840Z,4.60
2019-05-16T02:38:26.850Z,4.60
2019-05-16T02:40:55.075Z,4.50
2019-05-16T02:43:26.076Z,4.60
2019-05-16T02:45:51.933Z,4.60
2019-05-16T02:48:20.946Z,4.70
2019-05-16T02:50:45.592Z,4.60
2019-05-16T02:53:13.128Z,4.60
2019-05-16T02:55:41.185Z,4.60
2019-05-16T02:58:11.232Z,4.50
2019-05-16T03:00:35.889Z,4.50
2019-05-16T03:03:03.456Z,4.40
2019-05-16T03:05:30.994Z,4.50
2019-05-16T03:08:01.036Z,4.40
2019-05-16T03:10:27.121Z,4.50
2019-05-16T03:12:54.717Z,4.60
2019-05-16T03:15:22.274Z,4.60
2019-05-16T03:17:50.804Z,4.50
2019-05-16T03:20:17.417Z,4.50
2019-05-16T03:22:44.957Z,4.40
2019-05-16T03:25:12.523Z,4.50
2019-05-16T03:27:41.417Z,4.50
2019-05-16T03:30:14.327Z,4.60
2019-05-16T03:32:36.279Z,4.60
2019-05-16T03:35:05.412Z,4.70
2019-05-16T03:37:31.469Z,4.70
2019-05-16T03:40:00.655Z,4.60
2019-05-16T03:42:26.605Z,4.50
2019-05-16T03:44:54.140Z,4.50
2019-05-16T03:47:22.064Z,4.50
2019-05-16T03:49:51.813Z,4.50
2019-05-16T03:52:16.889Z,4.50
2019-05-16T03:54:45.216Z,4.50
2019-05-16T03:57:12.752Z,4.50
2019-05-16T03:59:40.889Z,4.50
2019-05-16T04:02:10.659Z,4.50
2019-05-16T04:04:36.521Z,4.50
2019-05-16T04:07:04.085Z,4.60
2019-05-16T04:09:31.769Z,4.70
2019-05-16T04:12:01.886Z,4.70
2019-05-16T04:14:26.867Z,4.80
2019-05-16T04:16:54.436Z,4.80
2019-05-16T04:19:21.987Z,4.90
2019-05-16T04:21:51.147Z,4.90
2019-05-16T04:24:17.125Z,4.90
2019-05-16T04:26:44.693Z,4.80
2019-05-16T04:29:12.320Z,4.70
2019-05-16T04:31:41.484Z,4.70
2019-05-16T04:34:11.707Z,4.60
2019-05-16T04:36:36.776Z,4.60
2019-05-16T04:39:04.328Z,4.70
2019-05-16T04:41:31.881Z,4.80
2019-05-16T04:44:01.532Z,4.90
2019-05-16T04:46:27.018Z,5.00
2019-05-16T04:48:54.560Z,5.10
2019-05-16T04:51:22.260Z,5.30
2019-05-16T04:53:51.077Z,5.60
2019-05-16T04:56:21.315Z,5.60
2019-05-16T04:58:45.663Z,5.70
2019-05-16T05:01:13.215Z,5.80
2019-05-16T05:03:58.501Z,6.40
2019-05-16T05:06:11.328Z,6.40
2019-05-16T05:08:50.435Z,6.50
2019-05-16T05:11:04.337Z,6.60
2019-05-16T05:13:31.877Z,6.60
2019-05-16T05:16:01.344Z,6.50
2019-05-16T05:18:30.076Z,6.80
2019-05-16T05:20:55.389Z,6.80
2019-05-16T05:23:22.927Z,7.00
2019-05-16T05:25:51.524Z,7.10
2019-05-16T05:28:20.659Z,7.30
2019-05-16T05:30:45.643Z,7.10
2019-05-16T05:33:13.200Z,7.30
2019-05-16T05:35:41.512Z,7.10
2019-05-16T05:38:10.544Z,7.10
2019-05-16T05:40:36.653Z,7.20
2019-05-16T05:43:04.213Z,7.20
2019-05-16T05:45:31.748Z,7.50
2019-05-16T05:48:00.181Z,7.70
2019-05-16T05:50:26.911Z,7.80
2019-05-16T05:52:55.244Z,8.30
2019-05-16T05:55:22.776Z,8.30
2019-05-16T05:57:50.823Z,8.40
2019-05-16T06:00:20.810Z,8.60
2019-05-16T06:02:46.300Z,9.10
2019-05-16T06:05:13.836Z,9.00
2019-05-16T06:07:41.396Z,9.40
2019-05-16T06:10:10.593Z,9.40
2019-05-16T06:12:36.506Z,9.40
2019-05-16T06:15:08.929Z,9.40
2019-05-16T06:17:32.495Z,9.80
2019-05-16T06:20:00.402Z,9.70
2019-05-16T06:22:29.648Z,9.70
2019-05-16T06:24:55.236Z,9.80
2019-05-16T06:27:23.789Z,9.60
2019-05-16T06:29:51.348Z,9.50
2019-05-16T06:32:19.806Z,9.40
2019-05-16T06:34:46.488Z,9.50
2019-05-16T06:37:14.053Z,9.60
2019-05-16T06:39:45.210Z,9.50
2019-05-16T06:42:09.888Z,9.60
2019-05-16T06:44:36.793Z,9.80
2019-05-16T06:47:16.060Z,10.10
2019-05-16T06:49:32.999Z,10.30
2019-05-16T06:52:00.536Z,10.60
2019-05-16T06:54:29.871Z,10.70
2019-05-16T06:56:55.704Z,10.50
2019-05-16T06:59:23.268Z,10.90
2019-05-16T07:01:50.803Z,11.40
2019-05-16T07:04:20.074Z,11.80
2019-05-16T07:06:56.077Z,11.40
2019-05-16T07:09:14.546Z,11.30
2019-05-16T07:11:42.119Z,11.20
2019-05-16T07:14:10.826Z,11.00
2019-05-16T07:16:40.439Z,11.00
2019-05-16T07:19:05.895Z,10.90
2019-05-16T07:21:33.462Z,11.20
2019-05-16T07:24:01.987Z,11.30
2019-05-16T07:26:31.010Z,11.10
2019-05-16T07:29:00.205Z,11.10
2019-05-16T07:31:25.504Z,11.10
2019-05-16T07:33:53.065Z,11.60
2019-05-16T07:36:21.020Z,12.20
2019-05-16T07:38:50.525Z,12.30
2019-05-16T07:41:15.851Z,11.90
2019-05-16T07:43:43.401Z,12.30
2019-05-16T07:46:11.979Z,12.20
2019-05-16T07:48:40.319Z,11.80
2019-05-16T07:51:07.157Z,11.60
2019-05-16T07:53:34.703Z,11.80
2019-05-16T07:56:02.268Z,11.70
2019-05-16T07:58:31.322Z,12.10
2019-05-16T08:01:03.371Z,12.30
2019-05-16T08:03:25.985Z,12.30
2019-05-16T08:05:53.523Z,12.80
2019-05-16T08:08:24.113Z,13.30
2019-05-16T08:10:51.166Z,12.70
2019-05-16T08:13:20.767Z,12.70
2019-05-16T08:15:45.426Z,13.30
2019-05-16T08:18:12.992Z,13.40
2019-05-16T08:20:41.677Z,13.20
2019-05-16T08:23:10.886Z,13.40
2019-05-16T08:25:35.828Z,13.90
2019-05-16T08:28:03.457Z,13.60
2019-05-16T08:30:31.691Z,13.30
2019-05-16T08:33:02.464Z,13.50
2019-05-16T08:35:26.257Z,13.10
2019-05-16T08:37:53.809Z,13.10
2019-05-16T08:40:22.137Z,13.10
2019-05-16T08:42:51.947Z,13.10
2019-05-16T08:45:21.001Z,13.50
2019-05-16T08:47:45.876Z,13.80
2019-05-16T08:52:43.560Z,14.30
2019-05-16T08:55:13.508Z,14.60
2019-05-16T08:57:36.492Z,14.70
2019-05-16T09:00:04.977Z,14.80
2019-05-16T09:02:36.737Z,15.00
2019-05-16T09:05:05.256Z,15.10
2019-05-16T09:07:31.591Z,15.20
2019-05-16T09:09:59.841Z,15.30
2019-05-16T09:10:21.439Z,14.10
2019-05-16T09:12:22.921Z,14.60
2019-05-16T09:14:50.493Z,14.70
2019-05-16T09:17:18.161Z,14.80
2019-05-16T09:19:47.157Z,15.10
2019-05-16T09:22:13.245Z,15.10
2019-05-16T09:24:40.781Z,15.20
2019-05-16T09:27:12.119Z,15.20
2019-05-16T09:29:36.637Z,15.00
2019-05-16T09:32:12.553Z,15.10
2019-05-16T09:34:31.180Z,15.10
2019-05-16T09:37:01.237Z,15.10
2019-05-16T09:39:27.872Z,15.00
2019-05-16T09:41:58.372Z,14.60
2019-05-16T09:44:22.560Z,14.50
2019-05-16T09:46:50.101Z,14.70
2019-05-16T09:49:24.297Z,15.90
2019-05-16T09:51:46.624Z,15.80
2019-05-16T09:54:12.875Z,16.20
2019-05-16T09:56:40.434Z,15.90
2019-05-16T09:59:07.968Z,16.10
2019-05-16T10:01:37.061Z,15.70
2019-05-16T10:04:03.168Z,15.50
2019-05-16T10:06:30.715Z,15.60
2019-05-16T10:08:58.288Z,15.60
2019-05-16T10:11:31.131Z,15.40
2019-05-16T10:13:53.484Z,15.80
2019-05-16T10:16:21.026Z,15.70
2019-05-16T10:18:48.592Z,15.50
2019-05-16T10:21:20.286Z,15.30
2019-05-16T10:23:43.744Z,15.50
2019-05-16T10:26:11.285Z,15.20
2019-05-16T10:28:38.825Z,15.40
2019-05-16T10:31:06.938Z,15.20
2019-05-16T10:33:34.012Z,15.20
2019-05-16T10:36:01.576Z,15.30
2019-05-16T10:38:29.109Z,15.50
2019-05-16T10:40:56.725Z,15.70
2019-05-16T10:43:26.412Z,15.80
2019-05-16T10:45:53.770Z,15.90
2019-05-16T10:48:20.227Z,15.90
2019-05-16T10:50:48.055Z,15.30
2019-05-16T10:53:42.349Z,15.20
2019-05-16T10:55:42.985Z,15.40
2019-05-16T10:58:10.516Z,15.40
2019-05-16T11:01:05.485Z,15.10
2019-05-16T11:03:06.476Z,15.10
2019-05-16T11:05:36.304Z,15.00
2019-05-16T11:08:01.208Z,14.90
2019-05-16T11:10:29.705Z,15.00
2019-05-16T11:12:59.575Z,14.90
2019-05-16T11:15:23.688Z,15.20
2019-05-16T11:17:51.215Z,15.60
2019-05-16T11:20:20.079Z,15.90
2019-05-16T11:22:47.713Z,15.60
2019-05-16T11:25:24.154Z,15.30
2019-05-16T11:27:41.616Z,15.80
2019-05-16T11:30:09.196Z,15.90
2019-05-16T11:32:37.449Z,16.10
2019-05-16T11:35:07.389Z,16.10
2019-05-16T11:37:36.869Z,16.00
2019-05-16T11:40:02.207Z,15.50
2019-05-16T11:42:29.771Z,15.90
2019-05-16T11:44:58.080Z,16.20
2019-05-16T11:47:27.230Z,16.30
2019-05-16T11:49:52.817Z,16.50
2019-05-16T11:52:20.396Z,16.50
2019-05-16T11:54:47.937Z,16.40
2019-05-16T11:57:17.739Z,16.30
2019-05-16T11:59:44.109Z,16.40
2019-05-16T12:02:11.668Z,16.70
2019-05-16T12:04:39.268Z,16.80
2019-05-16T12:07:07.648Z,16.70
2019-05-16T12:09:46.638Z,16.60
2019-05-16T12:12:05.032Z,16.60
2019-05-16T12:14:32.591Z,16.40
2019-05-16T12:17:00.136Z,16.00
2019-05-16T12:19:34.353Z,16.00
2019-05-16T12:21:57.055Z,16.70
2019-05-16T12:24:36.136Z,16.80
2019-05-16T12:26:51.929Z,16.90
2019-05-16T12:29:19.463Z,16.50
2019-05-16T12:31:57.565Z,16.20
2019-05-16T12:34:15.590Z,15.90
2019-05-16T12:36:43.889Z,16.50
2019-05-16T12:39:12.445Z,16.50
2019-05-16T12:41:41.322Z,16.60
2019-05-16T12:44:07.778Z,17.00
2019-05-16T12:46:36.504Z,17.30
2019-05-16T12:49:03.035Z,17.40
2019-05-16T12:51:30.595Z,17.00
2019-05-16T12:53:58.165Z,16.20
2019-05-16T12:56:27.103Z,16.60
2019-05-16T12:58:53.408Z,16.50
2019-05-16T13:01:21.318Z,16.30
2019-05-16T13:03:48.550Z,16.10
2019-05-16T13:06:17.191Z,16.10
2019-05-16T13:08:43.696Z,16.50
2019-05-16T13:11:11.256Z,16.30
2019-05-16T13:13:38.847Z,16.50
2019-05-16T13:16:07.692Z,16.60
2019-05-16T13:18:36.921Z,16.60
2019-05-16T13:21:03.344Z,16.50
2019-05-16T13:23:30.908Z,16.50
2019-05-16T13:25:58.448Z,16.60
2019-05-16T13:28:26.009Z,16.60
2019-05-16T13:30:53.543Z,16.60
2019-05-16T13:33:21.105Z,16.50
2019-05-16T13:35:48.645Z,16.50
2019-05-16T13:38:17.287Z,16.80
2019-05-16T13:40:43.812Z,16.70
2019-05-16T13:43:12.153Z,16.50
2019-05-16T13:45:39.689Z,16.50
2019-05-16T13:48:08.023Z,16.50
2019-05-16T13:50:37.326Z,16.70
2019-05-16T13:53:03.447Z,16.60
2019-05-16T13:55:31.476Z,16.90
2019-05-16T13:57:59.009Z,17.20
2019-05-16T14:00:27.899Z,17.50
2019-05-16T14:02:54.194Z,18.00
2019-05-16T14:05:21.764Z,18.30
2019-05-16T14:07:49.301Z,17.40
2019-05-16T14:10:18.128Z,17.40
2019-05-16T14:12:44.450Z,17.80
2019-05-16T14:15:11.990Z,17.60
2019-05-16T14:17:40.319Z,17.70
2019-05-16T14:20:14.696Z,17.70
2019-05-16T14:22:35.776Z,17.30
2019-05-16T14:25:03.344Z,17.40
2019-05-16T14:27:31.840Z,17.60
2019-05-16T14:29:59.405Z,17.50
2019-05-16T14:32:26.965Z,17.00
2019-05-16T14:34:58.167Z,17.00
2019-05-16T14:37:22.711Z,17.10
2019-05-16T14:39:50.275Z,17.00
2019-05-16T14:42:18.000Z,16.90
2019-05-16T14:45:03.879Z,17.00
2019-05-16T14:47:13.061Z,17.00
2019-05-16T14:49:40.598Z,16.90
2019-05-16T14:52:08.158Z,16.80
2019-05-16T14:54:37.803Z,16.90
2019-05-16T14:57:03.577Z,17.10
2019-05-16T14:59:31.137Z,17.10
2019-05-16T15:01:58.672Z,17.30
2019-05-16T15:04:30.096Z,17.40
2019-05-16T15:06:53.880Z,16.80
2019-05-16T15:09:22.419Z,16.60
2019-05-16T15:11:49.951Z,16.20
2019-05-16T15:14:17.709Z,16.10
2019-05-16T15:16:47.413Z,16.60
2019-05-16T15:19:12.772Z,16.60
2019-05-16T15:21:40.308Z,16.30
2019-05-16T15:24:07.885Z,16.10
2019-05-16T15:26:37.520Z,16.10
2019-05-16T15:29:03.047Z,16.10
2019-05-16T15:31:30.639Z,16.10
2019-05-16T15:33:58.176Z,16.10
2019-05-16T15:36:27.034Z,16.00
2019-05-16T15:38:53.335Z,16.10
2019-05-16T15:41:20.868Z,16.30
2019-05-16T15:43:48.458Z,16.10
2019-05-16T15:46:17.351Z,16.00
2019-05-16T15:48:43.624Z,15.80
2019-05-16T15:51:11.191Z,15.70
2019-05-16T15:53:38.724Z,15.50
2019-05-16T15:56:07.068Z,15.70
2019-05-16T15:58:33.875Z,15.80
2019-05-16T16:01:02.075Z,15.80
2019-05-16T16:03:29.720Z,15.80
2019-05-16T16:05:57.291Z,15.80
2019-05-16T16:08:27.906Z,15.60
2019-05-16T16:10:52.526Z,15.90
2019-05-16T16:13:20.209Z,16.00
2019-05-16T16:15:54.108Z,16.00
2019-05-16T16:18:19.492Z,16.10
2019-05-16T16:20:43.651Z,16.10
2019-05-16T16:23:11.213Z,16.20
2019-05-16T16:25:38.779Z,16.20
2019-05-16T16:28:07.407Z,15.90
2019-05-16T16:30:37.066Z,15.80
2019-05-16T16:33:17.256Z,15.90
2019-05-16T16:35:30.205Z,15.80
2019-05-16T16:37:57.916Z,15.90
2019-05-16T16:40:26.698Z,15.90
2019-05-16T16:42:53.119Z,16.00
2019-05-16T16:45:20.684Z,16.00
2019-05-16T16:47:48.266Z,16.00
2019-05-16T16:50:17.139Z,15.90
2019-05-16T16:52:43.431Z,16.00
2019-05-16T16:55:11.029Z,16.00
2019-05-16T16:57:38.758Z,15.80
2019-05-16T17:00:07.504Z,15.70
2019-05-16T17:02:33.780Z,15.50
2019-05-16T17:05:02.679Z,15.40
2019-05-16T17:07:29.756Z,15.20
2019-05-16T17:09:58.315Z,15.30
2019-05-16T17:12:25.871Z,15.40
2019-05-16T17:14:53.431Z,15.40
2019-05-16T17:17:20.963Z,15.40
2019-05-16T17:19:48.533Z,15.50
2019-05-16T17:22:20.502Z,15.40
2019-05-16T17:24:43.685Z,15.40
2019-05-16T17:27:11.239Z,15.40
2019-05-16T17:29:38.806Z,15.30
2019-05-16T17:32:09.883Z,15.20
2019-05-16T17:34:33.961Z,15.20
2019-05-16T17:37:01.520Z,15.10
2019-05-16T17:39:29.057Z,14.90
2019-05-16T17:41:57.997Z,14.80
2019-05-16T17:44:26.993Z,14.70
2019-05-16T17:46:53.076Z,14.40
2019-05-16T17:49:20.616Z,14.40
2019-05-16T17:51:48.183Z,14.30
2019-05-16T17:54:17.291Z,14.40
2019-05-16T17:56:43.356Z,14.40
2019-05-16T17:59:10.900Z,14.40
2019-05-16T18:01:38.463Z,14.40
2019-05-16T18:04:07.014Z,14.40
2019-05-16T18:06:36.966Z,14.20
2019-05-16T18:09:02.446Z,14.30
2019-05-16T18:11:30.013Z,14.40
2019-05-16T18:13:58.572Z,14.40
2019-05-16T18:16:26.130Z,14.50
2019-05-16T18:18:53.712Z,14.50
2019-05-16T18:21:21.364Z,14.50
2019-05-16T18:23:48.923Z,14.40
2019-05-16T18:26:17.341Z,14.40
2019-05-16T18:28:44.044Z,14.30
2019-05-16T18:31:12.624Z,14.30
2019-05-16T18:33:40.160Z,14.30
2019-05-16T18:36:07.900Z,14.20
2019-05-16T18:38:37.348Z,14.10
2019-05-16T18:41:02.953Z,13.90
2019-05-16T18:43:31.124Z,14.00
2019-05-16T18:45:58.679Z,14.10
2019-05-16T18:48:27.295Z,14.20
2019-05-16T18:50:53.845Z,14.10
2019-05-16T18:53:22.195Z,14.10
2019-05-16T18:55:50.131Z,14.10
2019-05-16T18:58:18.193Z,14.00
2019-05-16T19:00:46.712Z,13.90
2019-05-16T19:03:13.358Z,13.90
2019-05-16T19:05:40.904Z,13.80
2019-05-16T19:08:08.632Z,13.80
2019-05-16T19:10:36.797Z,13.80
2019-05-16T19:13:03.784Z,13.80
2019-05-16T19:15:31.337Z,13.80
2019-05-16T19:17:58.907Z,13.70
2019-05-16T19:20:26.481Z,13.60
2019-05-16T19:22:58.903Z,13.50
2019-05-16T19:25:22.596Z,13.50
2019-05-16T19:27:51.173Z,13.60
2019-05-16T19:30:18.707Z,13.50
2019-05-16T19:32:46.883Z,13.40
2019-05-16T19:35:16.334Z,13.40
2019-05-16T19:37:41.464Z,13.40
2019-05-16T19:40:09.025Z,13.30
2019-05-16T19:42:36.937Z,13.30
2019-05-16T19:45:06.107Z,13.30
2019-05-16T19:47:37.601Z,13.20
2019-05-16T19:50:01.247Z,13.10
2019-05-16T19:52:28.793Z,13.10
2019-05-16T19:54:56.492Z,13.10
2019-05-16T19:57:23.943Z,13.10
2019-05-16T19:59:51.529Z,13.00
2019-05-16T20:02:19.065Z,13.00
2019-05-16T20:04:47.116Z,13.00
2019-05-16T20:07:16.658Z,13.00
2019-05-16T20:09:42.307Z,12.90
2019-05-16T20:12:09.853Z,12.80
2019-05-16T20:14:37.419Z,12.80
2019-05-16T20:17:07.209Z,12.80
2019-05-16T20:19:32.600Z,12.80
2019-05-16T20:22:00.141Z,12.70
2019-05-16T20:24:27.710Z,12.70
2019-05-16T20:26:57.121Z,12.50
2019-05-16T20:29:22.881Z,12.50
2019-05-16T20:31:50.436Z,12.60
2019-05-16T20:34:18.005Z,12.50
2019-05-16T20:36:46.567Z,12.40
2019-05-16T20:39:14.134Z,12.30
2019-05-16T20:41:41.691Z,12.20
2019-05-16T20:44:09.260Z,12.00
2019-05-16T20:46:36.804Z,11.90
2019-05-16T20:49:04.365Z,11.80
2019-05-16T20:51:33.899Z,11.60
2019-05-16T20:54:01.444Z,11.50
2019-05-16T20:56:29.775Z,11.40
2019-05-16T20:58:57.566Z,11.40
2019-05-16T21:01:26.551Z,11.20
2019-05-16T21:03:52.507Z,11.00
2019-05-16T21:06:20.067Z,11.00
2019-05-16T21:08:49.586Z,10.80
2019-05-16T21:11:17.184Z,10.70
2019-05-16T21:13:43.264Z,10.70
2019-05-16T21:16:10.859Z,10.60
2019-05-16T21:18:38.404Z,10.60
2019-05-16T21:21:07.651Z,10.50
2019-05-16T21:23:33.554Z,10.50
2019-05-16T21:26:01.120Z,10.40
2019-05-16T21:28:29.428Z,10.20
2019-05-16T21:30:56.995Z,10.20
2019-05-16T21:33:27.031Z,10.10
2019-05-16T21:35:52.136Z,10.00
2019-05-16T21:38:19.687Z,9.90
2019-05-16T21:40:47.220Z,10.00
2019-05-16T21:43:16.660Z,9.90
2019-05-16T21:45:42.381Z,9.80
2019-05-16T21:48:09.940Z,9.80
2019-05-16T21:50:37.471Z,9.60
2019-05-16T21:53:07.367Z,9.60
2019-05-16T21:55:36.858Z,9.60
2019-05-16T21:58:02.143Z,9.50
2019-05-16T22:00:33.250Z,9.50
2019-05-16T22:03:00.805Z,9.50
2019-05-16T22:05:28.348Z,9.40
2019-05-16T22:07:56.774Z,9.40
2019-05-16T22:10:23.500Z,9.30
2019-05-16T22:12:51.061Z,9.30
2019-05-16T22:15:18.600Z,9.20
2019-05-16T22:17:47.226Z,9.20
2019-05-16T22:20:16.509Z,9.10
2019-05-16T22:22:42.348Z,9.20
2019-05-16T22:25:09.904Z,9.10
2019-05-16T22:27:37.529Z,9.10
2019-05-16T22:30:07.059Z,9.00
2019-05-16T22:32:33.468Z,9.00
2019-05-16T22:35:01.044Z,9.00
2019-05-16T22:37:28.576Z,8.90
2019-05-16T22:39:59.628Z,9.00
2019-05-16T22:42:26.636Z,9.00
2019-05-16T22:44:52.273Z,9.00
2019-05-16T22:47:20.603Z,9.00
2019-05-16T22:49:48.170Z,9.00
2019-05-16T22:52:17.153Z,8.90
2019-05-16T22:54:43.332Z,9.00
2019-05-16T22:57:10.876Z,8.90
2019-05-16T22:59:38.437Z,8.90
2019-05-16T23:02:11.033Z,8.90
2019-05-16T23:04:33.644Z,8.90
2019-05-16T23:07:01.187Z,8.80
2019-05-16T23:09:28.744Z,8.60
2019-05-16T23:11:56.388Z,8.50
2019-05-16T23:14:26.246Z,8.50
2019-05-16T23:16:51.485Z,8.50
2019-05-16T23:19:19.036Z,8.50
2019-05-16T23:21:47.512Z,8.40
2019-05-16T23:24:14.215Z,8.30
2019-05-16T23:26:41.743Z,8.20
2019-05-16T23:29:09.308Z,8.20
2019-05-16T23:31:36.861Z,8.30
2019-05-16T23:34:04.437Z,8.30
2019-05-16T23:36:32.736Z,8.20
2019-05-16T23:39:00.307Z,8.20
2019-05-16T23:41:27.861Z,8.20
2019-05-16T23:43:56.675Z,8.20
2019-05-16T23:46:23.001Z,8.10
2019-05-16T23:48:50.558Z,8.10
2019-05-16T23:51:18.123Z,8.10
2019-05-16T23:53:46.435Z,8.20
2019-05-16T23:56:13.273Z,8.20
2019-05-16T23:58:40.816Z,8.20
